Time;durP1;ratioP1;P1;durP2;ratioP2;P2;SDS_P1;SDS_P2;PMS_P1;PMS_P2;Temp;Humidity;BMP_temperature;BMP_pressure;BME280_temperature;BME280_humidity;BME280_pressure;Samples;Min_cycle;Max_cycle;Signal;HPM_P1;HPM_P2
2022/06/06 00:01:56;;;;;;;3.07;2.87;;;16.70;99.90;;;;;;6091665;23;20445;-83
2022/06/06 00:04:27;;;;;;;2.80;2.60;;;16.60;99.90;;;;;;6091360;23;21038;-83
2022/06/06 00:06:57;;;;;;;3.87;3.47;;;16.60;99.90;;;;;;6091017;23;20458;-83
2022/06/06 00:09:25;;;;;;;3.13;2.77;;;16.50;99.90;;;;;;6091892;23;20446;-83
2022/06/06 00:11:52;;;;;;;3.30;3.10;;;16.50;99.90;;;;;;6091205;23;20557;-83
2022/06/06 00:14:20;;;;;;;3.30;2.80;;;16.40;99.90;;;;;;6091568;23;20515;-83
2022/06/06 00:16:47;;;;;;;3.93;2.97;;;16.30;99.90;;;;;;6090817;23;21052;-83
2022/06/06 00:19:14;;;;;;;3.10;2.90;;;16.20;99.90;;;;;;6091521;23;20450;-83
2022/06/06 00:21:43;;;;;;;3.37;3.07;;;16.10;99.90;;;;;;6091493;23;20522;-83
2022/06/06 00:24:12;;;;;;;3.30;3.00;;;16.00;99.90;;;;;;6091109;23;20790;-83
2022/06/06 00:26:39;;;;;;;3.37;3.03;;;15.90;99.90;;;;;;6091136;23;20530;-83
2022/06/06 00:29:08;;;;;;;4.47;3.10;;;15.90;99.90;;;;;;6091608;23;20434;-83
2022/06/06 00:37:08;;;;;;;3.60;3.30;;;15.80;99.90;;;;;;6090619;23;21035;-83
2022/06/06 00:39:36;;;;;;;3.40;3.20;;;15.80;99.90;;;;;;6091612;23;20521;-83
2022/06/06 00:42:13;;;;;;;3.70;3.40;;;15.80;99.90;;;;;;6091639;23;20446;-83
2022/06/06 00:44:41;;;;;;;4.40;4.00;;;15.70;99.90;;;;;;6091644;23;20454;-83
2022/06/06 00:47:16;;;;;;;3.40;3.20;;;15.70;99.90;;;;;;6091175;23;20531;-83
2022/06/06 00:49:47;;;;;;;4.03;3.70;;;15.70;99.90;;;;;;6091587;23;20465;-83
2022/06/06 00:52:17;;;;;;;4.00;3.70;;;15.60;99.90;;;;;;6091611;23;20528;-83
2022/06/06 00:54:47;;;;;;;4.43;4.03;;;15.60;99.90;;;;;;6091222;23;20948;-83
2022/06/06 00:57:18;;;;;;;4.37;3.90;;;15.60;99.90;;;;;;6090695;23;20470;-83
2022/06/06 00:59:46;;;;;;;4.10;3.80;;;15.60;99.90;;;;;;6091094;23;20438;-83
2022/06/06 01:02:14;;;;;;;5.60;3.83;;;15.60;99.90;;;;;;6091521;23;20494;-83
2022/06/06 01:04:42;;;;;;;4.00;3.70;;;15.60;99.90;;;;;;6091031;23;20811;-83
2022/06/06 01:07:11;;;;;;;4.10;3.80;;;15.50;99.90;;;;;;6091523;23;20525;-83
2022/06/06 01:09:39;;;;;;;4.60;4.07;;;15.50;99.90;;;;;;6092461;23;20838;-83
2022/06/06 01:12:11;;;;;;;4.27;3.93;;;15.50;99.90;;;;;;6092519;23;20525;-83
2022/06/06 01:14:44;;;;;;;3.97;3.67;;;15.50;99.90;;;;;;6092725;23;20517;-83
2022/06/06 01:17:20;;;;;;;4.30;3.90;;;15.50;99.90;;;;;;6092103;23;20465;-83
2022/06/06 01:20:02;;;;;;;4.90;4.50;;;15.50;99.90;;;;;;6092553;23;20547;-83
2022/06/06 01:22:57;;;;;;;4.47;4.17;;;15.40;99.90;;;;;;6092202;23;20952;-83
2022/06/06 01:25:52;;;;;;;4.20;3.90;;;15.40;99.90;;;;;;6092305;23;20763;-83
2022/06/06 01:28:52;;;;;;;4.40;4.07;;;15.40;99.90;;;;;;6092057;23;20442;-83
2022/06/06 01:31:29;;;;;;;4.57;3.63;;;15.40;99.90;;;;;;6075646;23;20440;-83
2022/06/06 01:34:00;;;;;;;4.40;4.00;;;15.50;99.90;;;;;;6092489;23;20475;-83
2022/06/06 01:36:30;;;;;;;4.00;3.70;;;15.50;99.90;;;;;;6092320;23;20482;-83
2022/06/06 01:38:59;;;;;;;4.30;4.03;;;15.50;99.90;;;;;;6092281;23;20817;-83
2022/06/06 01:41:33;;;;;;;3.87;3.57;;;15.60;99.90;;;;;;6092099;23;20446;-83
2022/06/06 01:44:07;;;;;;;4.80;4.30;;;15.60;99.90;;;;;;6092207;23;20930;-83
2022/06/06 01:46:37;;;;;;;5.13;4.67;;;15.60;99.90;;;;;;6092193;23;20475;-83
2022/06/06 01:49:07;;;;;;;4.60;4.20;;;15.50;99.90;;;;;;6092366;23;20669;-83
2022/06/06 01:51:34;;;;;;;4.53;4.13;;;15.50;99.90;;;;;;6092220;23;20462;-83
2022/06/06 01:54:01;;;;;;;4.93;4.53;;;15.50;99.90;;;;;;6092182;23;20790;-82
2022/06/06 01:56:31;;;;;;;4.90;4.50;;;15.50;99.90;;;;;;6092141;23;20454;-83
2022/06/06 01:58:58;;;;;;;4.67;4.27;;;15.50;99.90;;;;;;6092378;23;20443;-83
2022/06/06 02:01:26;;;;;;;4.60;4.30;;;15.60;99.90;;;;;;6092259;23;20454;-83
2022/06/06 02:03:54;;;;;;;4.73;4.20;;;15.40;99.90;;;;;;6092079;23;20430;-83
2022/06/06 02:06:21;;;;;;;4.40;4.10;;;15.40;99.90;;;;;;6091747;23;20471;-83
2022/06/06 02:08:50;;;;;;;4.83;4.43;;;15.40;99.90;;;;;;6092497;23;20555;-83
2022/06/06 02:11:18;;;;;;;4.70;4.30;;;15.40;99.90;;;;;;6091866;23;20932;-83
2022/06/06 02:13:46;;;;;;;5.23;4.77;;;15.40;99.90;;;;;;6092013;23;20448;-83
2022/06/06 02:16:13;;;;;;;5.60;5.10;;;15.30;99.90;;;;;;6091925;23;20857;-83
2022/06/06 02:18:42;;;;;;;4.90;4.43;;;15.30;99.90;;;;;;6091558;23;20985;-83
2022/06/06 02:21:09;;;;;;;5.30;4.50;;;15.30;99.90;;;;;;6091651;23;20945;-83
2022/06/06 02:23:36;;;;;;;4.40;4.10;;;15.30;99.90;;;;;;6092240;23;20435;-83
2022/06/06 02:26:04;;;;;;;5.30;4.90;;;15.30;99.90;;;;;;6091736;23;20466;-83
2022/06/06 02:28:31;;;;;;;4.57;4.17;;;15.30;99.90;;;;;;6092153;23;20447;-83
2022/06/06 02:30:58;;;;;;;4.80;4.33;;;15.20;99.90;;;;;;6092522;23;20474;-83
2022/06/06 02:33:25;;;;;;;4.73;4.37;;;15.30;99.90;;;;;;6091675;23;20525;-83
2022/06/06 02:35:53;;;;;;;5.10;4.70;;;15.30;99.90;;;;;;6091703;23;20926;-83
2022/06/06 02:38:21;;;;;;;4.43;4.03;;;15.30;99.90;;;;;;6092473;23;20442;-83
2022/06/06 02:40:48;;;;;;;5.27;4.27;;;15.30;99.90;;;;;;6092272;23;20434;-83
2022/06/06 02:43:15;;;;;;;4.93;4.63;;;15.30;99.90;;;;;;6091709;23;20783;-83
2022/06/06 02:45:46;;;;;;;4.20;3.90;;;15.40;99.90;;;;;;6091578;23;20472;-83
2022/06/06 02:48:14;;;;;;;4.73;4.30;;;15.40;99.90;;;;;;6092384;23;20474;-83
2022/06/06 02:50:42;;;;;;;4.30;4.00;;;15.40;99.90;;;;;;6092273;23;20434;-83
2022/06/06 02:53:11;;;;;;;4.10;3.80;;;15.40;99.90;;;;;;6091248;23;20501;-83
2022/06/06 02:55:38;;;;;;;4.33;4.03;;;15.50;99.90;;;;;;6090576;23;20438;-83
2022/06/06 02:58:04;;;;;;;4.87;4.47;;;15.50;99.90;;;;;;6091878;23;20460;-83
2022/06/06 03:00:34;;;;;;;4.80;4.50;;;15.50;99.90;;;;;;6092022;23;20517;-83
2022/06/06 03:03:01;;;;;;;4.70;4.40;;;15.50;99.90;;;;;;6092074;23;20435;-83
2022/06/06 03:05:39;;;;;;;4.43;4.10;;;15.50;99.90;;;;;;6091968;23;20485;-83
2022/06/06 03:08:17;;;;;;;4.77;4.30;;;15.50;99.90;;;;;;6091889;23;20515;-83
2022/06/06 03:10:55;;;;;;;5.50;5.10;;;15.40;99.90;;;;;;6092089;23;20445;-83
2022/06/06 03:13:42;;;;;;;5.20;4.90;;;15.20;99.90;;;;;;6091944;23;20504;-83
2022/06/06 03:22:19;;;;;;;5.73;5.20;;;14.90;99.90;;;;;;6091720;23;20501;-83
2022/06/06 03:24:59;;;;;;;5.30;4.90;;;14.80;99.90;;;;;;6092350;23;20466;-83
2022/06/06 03:27:36;;;;;;;5.80;5.27;;;14.80;99.90;;;;;;6092002;23;20516;-83
2022/06/06 03:30:08;;;;;;;5.77;5.30;;;14.70;99.90;;;;;;6091290;23;20922;-83
2022/06/06 03:33:02;;;;;;;6.30;5.90;;;14.70;99.90;;;;;;6091911;23;20485;-83
2022/06/06 03:35:40;;;;;;;6.00;5.60;;;14.70;99.90;;;;;;6091167;23;20515;-83
2022/06/06 03:38:13;;;;;;;6.23;5.83;;;14.60;99.90;;;;;;6091485;23;20434;-82
2022/06/06 03:40:50;;;;;;;6.67;6.20;;;14.50;99.90;;;;;;6091744;23;20451;-83
2022/06/06 03:43:27;;;;;;;6.77;6.17;;;14.50;99.90;;;;;;6091897;23;20469;-83
2022/06/06 03:46:02;;;;;;;6.00;5.60;;;14.50;99.90;;;;;;6091272;23;20553;-83
2022/06/06 03:48:38;;;;;;;7.63;6.40;;;14.50;99.90;;;;;;6091710;23;20434;-83
2022/06/06 03:51:15;;;;;;;6.37;5.77;;;14.50;99.90;;;;;;6091796;23;20505;-83
2022/06/06 03:53:49;;;;;;;6.80;6.27;;;14.50;99.90;;;;;;6091756;23;20516;-83
2022/06/06 03:56:31;;;;;;;6.17;5.67;;;14.50;99.90;;;;;;6091251;23;20458;-83
2022/06/06 03:58:59;;;;;;;7.20;5.50;;;14.50;99.90;;;;;;6091501;23;20992;-82
2022/06/06 04:01:27;;;;;;;6.17;5.67;;;14.60;99.90;;;;;;6091625;23;20435;-83
2022/06/06 04:03:55;;;;;;;5.80;5.40;;;14.60;99.90;;;;;;6091977;23;20474;-83
2022/06/06 04:06:23;;;;;;;7.47;6.10;;;14.70;99.90;;;;;;6091181;23;20485;-83
2022/06/06 04:08:50;;;;;;;6.30;5.80;;;14.70;99.90;;;;;;6091506;23;20513;-83
2022/06/06 04:11:31;;;;;;;5.90;5.40;;;14.80;99.90;;;;;;6091080;23;20926;-83
2022/06/06 04:14:06;;;;;;;6.23;5.70;;;14.90;99.90;;;;;;6091748;23;20514;-83
2022/06/06 04:16:41;;;;;;;5.87;5.47;;;14.90;99.90;;;;;;6091044;23;20950;-83
2022/06/06 04:19:22;;;;;;;6.17;5.67;;;15.00;99.90;;;;;;6091512;23;20521;-83
2022/06/06 04:21:56;;;;;;;5.90;5.50;;;15.00;99.90;;;;;;6091601;23;20445;-83
2022/06/06 04:24:38;;;;;;;6.50;5.90;;;15.10;99.90;;;;;;6091185;23;20912;-83
2022/06/06 04:27:16;;;;;;;5.87;5.27;;;15.10;99.90;;;;;;6091088;23;20470;-83
2022/06/06 04:29:53;;;;;;;5.63;5.13;;;15.20;99.90;;;;;;6091776;23;20489;-83
2022/06/06 04:32:29;;;;;;;5.33;4.93;;;15.20;99.90;;;;;;6091261;23;20856;-82
2022/06/06 04:35:07;;;;;;;4.77;4.47;;;15.20;99.90;;;;;;6091224;23;20457;-83
2022/06/06 04:37:40;;;;;;;5.23;4.83;;;15.20;99.90;;;;;;6091363;23;20532;-83
2022/06/06 04:40:15;;;;;;;5.67;5.07;;;15.20;99.90;;;;;;6091432;23;20448;-83
2022/06/06 04:42:49;;;;;;;5.60;5.20;;;15.30;99.90;;;;;;6091720;23;20844;-83
2022/06/06 04:45:23;;;;;;;8.10;5.00;;;15.30;99.90;;;;;;6092207;23;20500;-83
2022/06/06 04:47:51;;;;;;;6.00;5.60;;;15.40;99.90;;;;;;6092443;23;20466;-83
2022/06/06 04:50:21;;;;;;;5.60;5.20;;;15.40;99.90;;;;;;6092479;23;20441;-83
2022/06/06 04:52:52;;;;;;;5.67;5.20;;;15.50;99.90;;;;;;6092536;23;20443;-83
2022/06/06 04:55:21;;;;;;;4.80;4.50;;;15.60;99.90;;;;;;6092104;23;20505;-83
2022/06/06 04:57:53;;;;;;;6.10;5.00;;;15.60;99.90;;;;;;6092482;23;20866;-83
2022/06/06 05:00:21;;;;;;;5.23;4.70;;;15.70;99.90;;;;;;6092738;23;20430;-83
2022/06/06 05:02:48;;;;;;;5.13;4.73;;;15.70;99.90;;;;;;6092553;23;20446;-83
2022/06/06 05:05:15;;;;;;;4.87;4.30;;;15.80;99.90;;;;;;6092323;23;20465;-83
2022/06/06 05:08:01;;;;;;;4.77;4.47;;;15.90;99.90;;;;;;6091703;23;20829;-83
2022/06/06 05:10:56;;;;;;;5.27;4.77;;;15.90;99.90;;;;;;6092670;23;20470;-83
2022/06/06 05:13:53;;;;;;;5.40;4.90;;;16.10;99.90;;;;;;6076633;22;20574;-77
2022/06/06 05:16:34;;;;;;;5.80;4.70;;;16.20;99.90;;;;;;6055855;23;20466;-77
2022/06/06 05:19:30;;;;;;;4.93;4.53;;;16.40;99.90;;;;;;6063227;23;20431;-77
2022/06/06 05:22:13;;;;;;;5.07;4.77;;;16.60;99.90;;;;;;6063313;23;20926;-77
2022/06/06 05:25:01;;;;;;;4.73;4.33;;;16.70;99.90;;;;;;6063960;23;20433;-77
2022/06/06 05:27:46;;;;;;;5.13;4.80;;;16.90;99.90;;;;;;6048357;23;20558;-77
2022/06/06 05:30:19;;;;;;;5.53;4.93;;;17.00;99.90;;;;;;6063851;23;20419;-77
2022/06/06 05:32:58;;;;;;;5.37;4.97;;;17.10;99.90;;;;;;6063767;23;20444;-77
2022/06/06 05:35:58;;;;;;;4.97;4.53;;;17.10;99.90;;;;;;6063524;23;20440;-78
2022/06/06 05:38:39;;;;;;;5.27;4.70;;;17.00;99.90;;;;;;6063066;23;20966;-77
2022/06/06 05:41:17;;;;;;;5.27;4.77;;;17.00;99.90;;;;;;6063164;23;20432;-77
2022/06/06 05:43:51;;;;;;;6.57;4.60;;;17.00;99.90;;;;;;6063779;23;20826;-77
2022/06/06 05:46:30;;;;;;;4.93;4.60;;;17.10;99.90;;;;;;6063331;23;20470;-77
2022/06/06 05:49:09;;;;;;;6.37;5.10;;;17.20;99.90;;;;;;6063148;23;20453;-77
2022/06/06 05:51:45;;;;;;;5.40;4.90;;;17.20;99.90;;;;;;6063700;23;20432;-77
2022/06/06 05:54:24;;;;;;;5.07;4.73;;;17.30;99.90;;;;;;6063605;23;20851;-77
2022/06/06 05:57:15;;;;;;;5.20;4.87;;;17.50;99.90;;;;;;6062493;23;20811;-77
2022/06/06 06:00:05;;;;;;;4.90;4.50;;;17.60;99.90;;;;;;6063896;23;20769;-77
2022/06/06 06:03:04;;;;;;;4.50;4.20;;;17.70;99.90;;;;;;6063797;23;20472;-77
2022/06/06 06:05:43;;;;;;;5.00;4.60;;;17.80;99.90;;;;;;6062923;23;20465;-78
2022/06/06 06:08:22;;;;;;;4.13;3.83;;;18.00;99.90;;;;;;6063175;23;20565;-77
2022/06/06 06:10:57;;;;;;;4.40;4.00;;;18.30;99.90;;;;;;6063404;23;20445;-77
2022/06/06 06:13:45;;;;;;;4.50;4.17;;;18.60;99.90;;;;;;6063287;23;20521;-78
2022/06/06 06:16:15;;;;;;;4.47;4.17;;;18.80;99.90;;;;;;6063170;23;20513;-77
2022/06/06 06:18:48;;;;;;;4.50;4.10;;;18.90;99.90;;;;;;6063893;23;20435;-77
2022/06/06 06:21:19;;;;;;;4.33;4.03;;;18.90;99.90;;;;;;6063503;23;20466;-77
2022/06/06 06:23:52;;;;;;;4.40;4.10;;;19.00;99.90;;;;;;6063528;23;20454;-78
2022/06/06 06:26:20;;;;;;;5.33;4.03;;;18.90;99.90;;;;;;6062605;23;20459;-77
2022/06/06 06:28:49;;;;;;;4.40;4.00;;;18.80;99.90;;;;;;6063188;23;20447;-77
2022/06/06 06:31:32;;;;;;;4.03;3.73;;;18.80;99.90;;;;;;6063898;23;20447;-77
2022/06/06 06:34:14;;;;;;;4.33;4.03;;;18.90;99.90;;;;;;6063338;23;20518;-77
2022/06/06 06:36:45;;;;;;;4.47;4.17;;;18.90;99.90;;;;;;6062563;23;20978;-78
2022/06/06 06:39:42;;;;;;;4.40;4.00;;;19.00;99.90;;;;;;6063324;23;20423;-78
2022/06/06 06:42:27;;;;;;;4.70;4.40;;;19.10;99.90;;;;;;6063420;23;20489;-77
2022/06/06 06:44:59;;;;;;;4.50;4.10;;;19.30;99.90;;;;;;6063169;23;20432;-77
2022/06/06 06:47:34;;;;;;;5.00;4.30;;;19.30;99.90;;;;;;6062550;23;20477;-77
2022/06/06 06:50:11;;;;;;;5.20;4.80;;;19.50;99.90;;;;;;6063398;23;20431;-78
2022/06/06 06:52:51;;;;;;;4.27;3.90;;;19.60;99.90;;;;;;6063399;23;20439;-78
2022/06/06 06:55:31;;;;;;;4.13;3.77;;;19.80;99.90;;;;;;6063065;23;20427;-78
2022/06/06 06:58:22;;;;;;;4.30;3.90;;;19.80;99.90;;;;;;6063106;23;20875;-77
2022/06/06 07:00:53;;;;;;;4.27;3.87;;;19.90;99.90;;;;;;6063436;23;20508;-78
2022/06/06 07:09:36;;;;;;;4.43;4.03;;;20.10;99.90;;;;;;6061631;23;20475;-77
2022/06/06 07:12:17;;;;;;;4.20;3.90;;;20.20;99.90;;;;;;6063499;23;20443;-77
2022/06/06 07:15:03;;;;;;;4.37;3.60;;;20.20;99.90;;;;;;6062985;23;20446;-78
2022/06/06 07:17:34;;;;;;;4.50;4.13;;;20.30;99.90;;;;;;6062257;23;20460;-78
2022/06/06 07:20:05;;;;;;;4.13;3.77;;;20.40;99.90;;;;;;6063092;23;20451;-77
2022/06/06 07:25:22;;;;;;;3.90;3.60;;;20.60;99.90;;;;;;6061349;23;20927;-78
2022/06/06 07:27:49;;;;;;;4.10;3.87;;;20.60;99.90;;;;;;6063044;23;20495;-78
2022/06/06 07:30:17;;;;;;;3.97;3.67;;;20.70;99.90;;;;;;6063114;23;20466;-78
2022/06/06 07:32:53;;;;;;;4.23;3.93;;;20.70;99.90;;;;;;6062816;23;20467;-78
2022/06/06 07:35:31;;;;;;;4.43;4.03;;;20.80;99.90;;;;;;6062668;23;20443;-77
2022/06/06 07:38:09;;;;;;;4.43;4.10;;;21.10;99.90;;;;;;6063031;23;20526;-77
2022/06/06 07:40:47;;;;;;;3.73;3.53;;;21.40;99.90;;;;;;6062864;23;20525;-78
2022/06/06 07:43:32;;;;;;;4.33;3.97;;;21.70;99.90;;;;;;6063245;23;20423;-78
2022/06/06 07:46:09;;;;;;;3.83;3.30;;;22.10;99.90;;;;;;6062383;23;20542;-78
2022/06/06 07:48:51;;;;;;;4.10;3.80;;;22.40;99.90;;;;;;6062836;23;21026;-78
2022/06/06 07:51:28;;;;;;;4.07;3.67;;;22.40;99.90;;;;;;6063229;23;20930;-78
2022/06/06 07:54:15;;;;;;;3.77;3.47;;;22.40;99.90;;;;;;6063457;23;20435;-78
2022/06/06 07:56:48;;;;;;;4.23;3.90;;;22.30;99.90;;;;;;6062707;23;20864;-78
2022/06/06 07:59:27;;;;;;;4.10;3.80;;;22.10;99.90;;;;;;6063091;23;20493;-78
2022/06/06 08:02:03;;;;;;;3.97;3.67;;;22.10;99.90;;;;;;6062711;23;20514;-78
2022/06/06 08:04:44;;;;;;;3.50;3.27;;;22.50;99.90;;;;;;6062713;23;20910;-78
2022/06/06 08:07:19;;;;;;;4.17;3.47;;;23.00;99.90;;;;;;6062612;23;20478;-78
2022/06/06 08:10:09;;;;;;;3.20;2.93;;;23.30;99.90;;;;;;6063036;23;20438;-78
2022/06/06 08:12:49;;;;;;;3.93;3.63;;;23.20;99.90;;;;;;6062871;23;20823;-78
2022/06/06 08:15:25;;;;;;;4.27;3.07;;;23.60;99.90;;;;;;6062427;23;20450;-78
2022/06/06 08:18:12;;;;;;;3.30;3.10;;;23.90;99.90;;;;;;6062213;23;20434;-78
2022/06/06 08:20:48;;;;;;;3.03;2.83;;;24.10;99.90;;;;;;6057132;23;20435;-77
2022/06/06 08:23:17;;;;;;;3.93;3.43;;;24.00;99.90;;;;;;6062696;23;20918;-78
2022/06/06 08:25:49;;;;;;;3.60;3.37;;;24.00;99.90;;;;;;6062431;23;20471;-77
2022/06/06 08:28:17;;;;;;;3.43;3.17;;;24.30;99.90;;;;;;6062393;23;20558;-78
2022/06/06 08:30:46;;;;;;;3.40;3.10;;;24.50;99.90;;;;;;6063017;23;20443;-78
2022/06/06 08:33:14;;;;;;;4.40;3.40;;;24.40;99.90;;;;;;6062911;23;20446;-78
2022/06/06 08:35:54;;;;;;;3.57;3.30;;;24.40;99.90;;;;;;6062473;23;20467;-78
2022/06/06 08:38:38;;;;;;;3.20;3.00;;;24.40;99.90;;;;;;6062551;23;21013;-78
2022/06/06 08:41:59;;;;;;;4.00;3.60;;;24.90;99.90;;;;;;6062572;23;20514;-78
2022/06/06 08:44:47;;;;;;;3.40;3.20;;;25.90;99.90;;;;;;5974466;24;20445;-78
2022/06/06 08:47:28;;;;;;;3.20;3.00;;;26.80;99.90;;;;;;6054073;23;20537;-78
2022/06/06 08:53:44;;;;;;;4.67;3.80;;;26.30;99.90;;;;;;6062757;23;20434;-78
2022/06/06 08:56:53;;;;;;;2.90;2.67;;;26.60;99.90;;;;;;6062085;23;20470;-78
2022/06/06 09:00:05;;;;;;;3.63;3.33;;;27.30;99.90;;;;;;6062425;23;20438;-78
2022/06/06 09:03:19;;;;;;;2.60;2.40;;;27.00;99.90;;;;;;6062265;23;20514;-78
2022/06/06 09:06:35;;;;;;;2.70;2.47;;;26.30;99.90;;;;;;6062163;23;20538;-78
2022/06/06 09:09:39;;;;;;;2.90;2.50;;;25.80;99.90;;;;;;6062298;23;20473;-78
2022/06/06 09:13:01;;;;;;;3.00;2.80;;;24.80;99.90;;;;;;6061844;23;20935;-78
2022/06/06 09:16:02;;;;;;;4.17;2.83;;;24.40;99.90;;;;;;6061800;23;20468;-78
2022/06/06 09:19:06;;;;;;;3.20;2.90;;;24.50;99.90;;;;;;6062035;23;20956;-78
2022/06/06 09:21:56;;;;;;;3.10;2.90;;;24.70;99.90;;;;;;6062440;23;20474;-78
2022/06/06 09:25:13;;;;;;;2.70;2.50;;;24.50;99.90;;;;;;6057779;23;20444;-78
2022/06/06 09:28:26;;;;;;;2.60;2.40;;;24.40;99.90;;;;;;6062255;23;20498;-78
2022/06/06 09:31:39;;;;;;;3.10;2.27;;;24.60;99.90;;;;;;6063794;23;20443;-78
2022/06/06 09:34:48;;;;;;;3.00;2.47;;;25.00;99.90;;;;;;6063642;23;20443;-78
2022/06/06 09:37:34;;;;;;;3.60;2.13;;;26.10;99.90;;;;;;6063267;23;20462;-78
2022/06/06 09:40:16;;;;;;;2.70;2.50;;;26.40;99.50;;;;;;6063836;23;20534;-78
2022/06/06 09:43:06;;;;;;;2.20;2.10;;;26.70;99.90;;;;;;6063444;23;20458;-78
2022/06/06 09:45:37;;;;;;;2.30;1.97;;;27.40;99.30;;;;;;6063387;23;20543;-78
2022/06/06 09:48:38;;;;;;;2.10;2.00;;;28.30;98.70;;;;;;6063379;23;20475;-79
2022/06/06 09:51:36;;;;;;;2.27;2.03;;;28.30;94.10;;;;;;6063439;23;20513;-78
2022/06/06 10:00:49;;;;;;;2.23;2.03;;;28.60;93.00;;;;;;6063478;23;20514;-78
2022/06/06 10:03:59;;;;;;;1.87;1.77;;;29.00;93.30;;;;;;6063825;23;20435;-78
2022/06/06 10:07:13;;;;;;;1.93;1.83;;;28.90;91.30;;;;;;5975248;24;20530;-78
2022/06/06 10:10:15;;;;;;;3.77;2.20;;;28.20;90.50;;;;;;6041665;23;20518;-79
2022/06/06 10:13:17;;;;;;;1.80;1.70;;;27.90;91.30;;;;;;6063424;23;20443;-79
2022/06/06 10:16:12;;;;;;;1.90;1.70;;;28.10;91.00;;;;;;6063084;23;20853;-79
2022/06/06 10:19:14;;;;;;;1.90;1.80;;;28.80;91.20;;;;;;6063716;23;20477;-79
2022/06/06 10:22:16;;;;;;;2.00;1.80;;;29.40;90.00;;;;;;6063354;23;20434;-79
2022/06/06 10:25:26;;;;;;;2.03;1.93;;;29.10;87.30;;;;;;6063117;23;20470;-79
2022/06/06 10:28:05;;;;;;;2.97;2.17;;;29.20;88.20;;;;;;6063117;23;20969;-79
2022/06/06 10:30:45;;;;;;;1.97;1.87;;;28.90;88.10;;;;;;6063476;23;20471;-78
2022/06/06 10:33:30;;;;;;;1.90;1.80;;;27.90;90.10;;;;;;6063770;23;20435;-78
2022/06/06 10:36:16;;;;;;;2.60;1.90;;;26.20;89.60;;;;;;6063534;23;20463;-79
2022/06/06 10:39:01;;;;;;;2.40;2.20;;;25.20;91.20;;;;;;6063278;23;20549;-78
2022/06/06 10:41:52;;;;;;;3.13;2.27;;;24.60;95.20;;;;;;6062867;23;20482;-78
2022/06/06 10:44:43;;;;;;;3.03;2.03;;;24.70;95.60;;;;;;6063553;23;20443;-79
2022/06/06 10:47:20;;;;;;;2.40;2.13;;;25.00;96.30;;;;;;6062574;23;20505;-79
2022/06/06 10:49:57;;;;;;;2.30;2.10;;;25.40;96.10;;;;;;6063180;23;20962;-78
2022/06/06 10:53:05;;;;;;;4.90;2.00;;;26.00;95.70;;;;;;6063589;23;20482;-79
2022/06/06 10:56:04;;;;;;;2.67;2.53;;;26.30;94.50;;;;;;6062592;23;20463;-79
2022/06/06 10:59:02;;;;;;;3.43;2.30;;;26.80;95.00;;;;;;6062515;23;21022;-79
2022/06/06 11:01:56;;;;;;;4.43;2.30;;;26.90;93.90;;;;;;6063020;23;20519;-79
2022/06/06 11:05:04;;;;;;;2.70;2.50;;;27.40;94.00;;;;;;6063046;23;20840;-79
2022/06/06 11:08:02;;;;;;;2.20;2.00;;;27.30;92.90;;;;;;6062528;23;20485;-79
2022/06/06 11:10:55;;;;;;;2.20;2.00;;;27.20;92.80;;;;;;6063370;23;20439;-79
2022/06/06 11:13:38;;;;;;;2.10;1.90;;;27.30;93.40;;;;;;6022904;23;20806;-79
2022/06/06 11:16:27;;;;;;;2.10;1.80;;;27.10;92.70;;;;;;6062492;23;20997;-79
2022/06/06 11:19:24;;;;;;;1.97;1.87;;;26.80;92.20;;;;;;6063098;23;20446;-79
2022/06/06 11:22:27;;;;;;;2.13;1.90;;;27.40;92.20;;;;;;6051513;23;20566;-79
2022/06/06 11:25:03;;;;;;;2.27;1.83;;;28.50;90.70;;;;;;6063180;23;20443;-79
2022/06/06 11:27:52;;;;;;;1.83;1.73;;;28.70;88.30;;;;;;6063241;23;20419;-79
2022/06/06 11:30:41;;;;;;;1.97;1.83;;;28.10;88.80;;;;;;6062929;23;20442;-79
2022/06/06 11:33:47;;;;;;;2.00;1.90;;;27.40;90.60;;;;;;6063580;23;20510;-79
2022/06/06 11:36:57;;;;;;;2.10;2.00;;;26.70;91.30;;;;;;6062623;23;20814;-79
2022/06/06 11:39:54;;;;;;;2.70;2.27;;;26.30;91.50;;;;;;6041012;23;20466;-79
2022/06/06 11:42:57;;;;;;;1.93;1.77;;;25.70;91.60;;;;;;6055534;23;20791;-78
2022/06/06 11:45:49;;;;;;;2.20;1.63;;;25.60;91.10;;;;;;6062423;23;20466;-78
2022/06/06 11:48:49;;;;;;;2.07;1.97;;;25.70;91.30;;;;;;6063178;23;20483;-78
2022/06/06 11:51:38;;;;;;;2.53;2.40;;;25.20;91.90;;;;;;6062491;23;20908;-78
2022/06/06 11:54:30;;;;;;;2.77;2.20;;;25.20;92.70;;;;;;6063145;23;20439;-79
2022/06/06 11:57:24;;;;;;;3.20;2.90;;;25.40;93.70;;;;;;6021621;23;20999;-79
2022/06/06 12:00:10;;;;;;;2.37;2.17;;;25.60;94.10;;;;;;6062676;23;20455;-79
2022/06/06 12:03:07;;;;;;;2.23;2.03;;;25.60;92.80;;;;;;6063159;23;20523;-78
2022/06/06 12:06:18;;;;;;;3.77;2.40;;;25.20;92.20;;;;;;6062936;23;20467;-79
2022/06/06 12:09:08;;;;;;;2.00;1.90;;;25.00;93.00;;;;;;6021118;23;20475;-78
2022/06/06 12:12:08;;;;;;;2.20;2.10;;;24.50;93.00;;;;;;6062965;23;20514;-78
2022/06/06 12:15:07;;;;;;;2.30;2.10;;;24.10;93.10;;;;;;6062744;23;20443;-78
2022/06/06 12:17:56;;;;;;;4.23;2.00;;;23.80;93.70;;;;;;6062964;23;20446;-78
2022/06/06 12:20:52;;;;;;;2.30;2.10;;;23.60;94.10;;;;;;6062835;23;20447;-78
2022/06/06 12:23:25;;;;;;;2.47;2.27;;;23.50;94.80;;;;;;6014663;23;20447;-78
2022/06/06 12:26:06;;;;;;;1.97;1.87;;;23.40;95.00;;;;;;6062678;23;20463;-78
2022/06/06 12:29:06;;;;;;;3.23;1.90;;;23.30;95.50;;;;;;6062837;23;20562;-78
2022/06/06 12:31:53;;;;;;;1.80;1.70;;;23.40;95.10;;;;;;6063134;23;20529;-78
2022/06/06 12:34:28;;;;;;;2.80;2.37;;;23.60;95.30;;;;;;6062796;23;20486;-79
2022/06/06 12:37:01;;;;;;;1.50;1.40;;;24.20;95.10;;;;;;6061952;23;21083;-78
2022/06/06 12:39:43;;;;;;;2.07;1.93;;;24.80;94.50;;;;;;6062940;23;20515;-79
2022/06/06 12:42:16;;;;;;;2.80;1.87;;;25.30;94.20;;;;;;6062802;23;20491;-78
2022/06/06 12:44:59;;;;;;;2.20;1.63;;;26.10;93.40;;;;;;6062310;23;20439;-78
2022/06/06 12:48:14;;;;;;;1.83;1.73;;;26.90;92.20;;;;;;6062608;23;20431;-79
2022/06/06 12:50:51;;;;;;;2.80;2.07;;;27.50;90.70;;;;;;5974808;24;20524;-78
2022/06/06 12:53:54;;;;;;;1.80;1.70;;;27.10;90.20;;;;;;5974750;24;20448;-79
2022/06/06 12:56:37;;;;;;;1.87;1.77;;;26.80;90.20;;;;;;6049791;23;20454;-78
2022/06/06 12:59:22;;;;;;;2.17;2.00;;;26.60;90.60;;;;;;6062665;23;20447;-78
2022/06/06 13:02:04;;;;;;;2.00;1.80;;;26.30;90.60;;;;;;6062905;23;20768;-78
2022/06/06 13:04:52;;;;;;;2.40;2.20;;;26.00;90.90;;;;;;6063136;23;21029;-78
2022/06/06 13:07:50;;;;;;;2.30;2.10;;;25.80;91.40;;;;;;6063248;23;21001;-78
2022/06/06 13:10:28;;;;;;;2.60;1.60;;;25.50;90.80;;;;;;6063678;23;20613;-78
2022/06/06 13:13:11;;;;;;;1.70;1.60;;;25.20;91.70;;;;;;6063390;23;20442;-78
2022/06/06 13:15:42;;;;;;;2.30;1.83;;;25.00;92.40;;;;;;6063379;23;20501;-78
2022/06/06 13:18:26;;;;;;;1.97;1.87;;;24.80;92.60;;;;;;6063933;23;20433;-78
2022/06/06 13:21:03;;;;;;;2.50;2.13;;;24.70;92.70;;;;;;6063318;23;20522;-78
2022/06/06 13:23:48;;;;;;;2.70;1.90;;;24.30;93.30;;;;;;6063883;23;20435;-78
2022/06/06 13:26:33;;;;;;;1.73;1.63;;;24.10;93.50;;;;;;6063151;23;20988;-78
2022/06/06 13:29:00;;;;;;;1.93;1.83;;;23.80;92.30;;;;;;6063696;23;20464;-78
2022/06/06 13:31:43;;;;;;;1.93;1.83;;;23.40;91.30;;;;;;6063672;23;20463;-78
2022/06/06 13:34:22;;;;;;;1.70;1.60;;;23.10;91.50;;;;;;6063756;23;20450;-78
2022/06/06 13:37:10;;;;;;;3.73;1.90;;;23.00;90.90;;;;;;6062994;23;20455;-78
2022/06/06 13:39:59;;;;;;;2.17;1.83;;;23.00;91.20;;;;;;6063367;23;20853;-78
2022/06/06 13:42:44;;;;;;;1.97;1.77;;;23.20;90.70;;;;;;6063473;23;20979;-78
2022/06/06 13:45:26;;;;;;;1.70;1.60;;;23.30;90.90;;;;;;6062810;23;20467;-79
2022/06/06 13:48:18;;;;;;;1.80;1.70;;;23.70;90.90;;;;;;6063425;23;20454;-78
2022/06/06 13:50:56;;;;;;;1.50;1.40;;;23.70;90.70;;;;;;6063817;23;20521;-78
2022/06/06 13:53:43;;;;;;;2.17;1.80;;;23.60;90.50;;;;;;6063924;23;20426;-78
2022/06/06 13:56:38;;;;;;;2.20;2.10;;;23.50;90.50;;;;;;6062750;23;20466;-78
2022/06/06 13:59:21;;;;;;;2.07;1.80;;;23.20;91.00;;;;;;6063755;23;20535;-78
2022/06/06 14:01:55;;;;;;;2.17;2.07;;;23.00;91.50;;;;;;6063805;23;20435;-78
2022/06/06 14:04:37;;;;;;;1.80;1.70;;;22.90;91.80;;;;;;6063692;23;20517;-78
2022/06/06 14:07:19;;;;;;;1.90;1.80;;;22.80;92.00;;;;;;6063000;23;20530;-78
2022/06/06 14:09:47;;;;;;;2.07;1.87;;;22.80;92.90;;;;;;6063283;23;20834;-78
2022/06/06 14:12:32;;;;;;;2.20;2.00;;;22.70;93.10;;;;;;6063512;23;20447;-78
2022/06/06 14:15:04;;;;;;;2.30;1.73;;;22.70;93.00;;;;;;6062496;23;20530;-78
2022/06/06 14:17:36;;;;;;;2.10;1.90;;;22.50;93.40;;;;;;6063254;23;20439;-78
2022/06/06 14:20:18;;;;;;;2.93;1.70;;;22.40;93.70;;;;;;6063682;23;20483;-78
2022/06/06 14:22:48;;;;;;;1.90;1.70;;;22.20;93.90;;;;;;6063745;23;20440;-78
2022/06/06 14:25:15;;;;;;;2.70;1.80;;;22.20;94.20;;;;;;6063159;23;20562;-78
2022/06/06 14:27:45;;;;;;;2.10;2.00;;;22.10;94.60;;;;;;6063234;23;20439;-78
2022/06/06 14:30:29;;;;;;;2.33;1.80;;;22.00;94.60;;;;;;6063021;23;20467;-78